Flight Track Log - Related Links

Times and Time Zones

All times are in EDT time to prevent confusion due to time zone crossing. See the EJA929 flight status page for this flight to view local times or setup timezone preferences in your user account.


Time Position Orientation Groundspeed Altitude Reporting Facility
EDT Latitude Longitude Course Direction KTS MPH feet Rate Location/Type
Wed 03:26:11 PM 48.1917 -103.6686 155° Southeast 161 185 2,900  Level Salt Lake Center
Wed 03:27:13 PM 48.2131 -103.7325 297° West 203 234 6,200 3,194 Climbing Salt Lake Center
Wed 03:28:15 PM 48.1506 -103.7097 166° South 239 275 9,500 2,565 Climbing Salt Lake Center
Wed 03:29:00 PM 47.3879 -103.1378 146° Southeast  Level FlightAware Approximate
Wed 03:29:17 PM 48.0883 -103.6317 140° Southeast 270 311 11,500  Level Salt Lake Center
Wed 03:30:00 PM 47.2702 -103.0518 161° South  Level FlightAware Approximate
Wed 03:30:19 PM 48.0039 -103.5708 154° Southeast 307 353 13,000  Level Salt Lake Center
Wed 03:31:00 PM 47.1503 -102.9685 155° Southeast  Level FlightAware Approximate
Wed 03:31:21 PM 47.9081 -103.5025 154° Southeast 345 397 14,500  Level Salt Lake Center
Wed 03:32:23 PM 47.8061 -103.4306 155° Southeast 376 433 16,100 1,597 Climbing Salt Lake Center
Wed 03:33:25 PM 47.7008 -103.3567 155° Southeast 397 457 17,800 1,597 Climbing Salt Lake Center
Wed 03:34:27 PM 47.5944 -103.2806 154° Southeast 411 473 19,400 1,597 Climbing Salt Lake Center
Wed 03:35:29 PM 47.4858 -103.2044 155° Southeast 420 483 21,100 1,790 Climbing Salt Lake Center
Wed 03:36:31 PM 47.3536 -103.1103 154° Southeast 430 495 23,100 1,776 Climbing Salt Lake Center
Wed 03:37:34 PM 47.2414 -103.0328 155° Southeast 446 513 24,800 1,632 Climbing Minneapolis Center
Wed 03:38:36 PM 47.1239 -102.9525 155° Southeast 460 529 26,500 1,645 Climbing Minneapolis Center
Wed 03:39:38 PM 47.0050 -102.8694 155° Southeast 469 540 28,200 1,664 Climbing Minneapolis Center
Wed 03:40:53 PM 46.8564 -102.7694 155° Southeast 485 558 30,300 1,664 Climbing Minneapolis Center
Wed 03:41:55 PM 46.7022 -102.6731 157° South 499 574 32,000 1,597 Climbing Minneapolis Center
Wed 03:42:57 PM 46.5678 -102.5953 158° South 512 589 33,600 1,597 Climbing Minneapolis Center
Wed 03:43:59 PM 46.4328 -102.5133 157° South 523 602 35,300 1,645 Climbing Minneapolis Center
Wed 03:45:01 PM 46.2975 -102.4325 158° South 526 605 37,000 1,694 Climbing Minneapolis Center
Wed 03:46:03 PM 46.1631 -102.3539 158° South 525 604 38,800 1,776 Climbing Minneapolis Center
Wed 03:47:06 PM 46.0106 -102.2622 157° South 515 593 40,700 1,056 Climbing Minneapolis Center
Wed 03:48:08 PM 45.8822 -102.1842 157° South 506 582 41,000 145 Climbing Minneapolis Center
Wed 03:49:10 PM 45.7458 -102.1044 158° South 520 598 41,000  Level Minneapolis Center
Wed 03:50:12 PM 45.6053 -102.0219 158° South 537 618 41,000  Level Minneapolis Center
Wed 03:51:14 PM 45.4622 -101.9381 158° South 551 634 41,000  Level Minneapolis Center
Wed 03:52:16 PM 45.2894 -101.8381 158° South 558 642 41,000  Level Minneapolis Center
Wed 03:53:18 PM 45.1450 -101.7553 158° South 560 644 41,000  Level Minneapolis Center
Wed 03:54:21 PM 44.9964 -101.7011 166° South 556 640 41,000  Level Minneapolis Center
Wed 03:55:23 PM 44.8489 -101.6733 172° South 541 623 41,000  Level Minneapolis Center
Wed 03:56:25 PM 44.7003 -101.6469 173° South 541 623 41,000  Level Minneapolis Center
Wed 03:57:17 PM 44.5528 -101.6200 173° South 540 621 41,000  Level Denver Center
Wed 03:58:19 PM 44.4067 -101.5936 173° South 534 615 41,000  Level Denver Center
Wed 03:59:21 PM 44.2581 -101.5647 172° South 538 619 41,000  Level Denver Center
Wed 04:00:33 PM 44.0814 -101.5353 173° South 536 617 41,000  Level Minneapolis Center
Wed 04:01:35 PM 43.9331 -101.5078 172° South 537 618 41,000  Level Minneapolis Center
Wed 04:02:38 PM 43.7856 -101.4825 173° South 537 618 41,000  Level Minneapolis Center
Wed 04:03:40 PM 43.6067 -101.4517 173° South 540 621 41,000  Level Minneapolis Center
Wed 04:04:42 PM 43.4569 -101.4250 173° South 542 624 41,000  Level Minneapolis Center
Wed 04:05:44 PM 43.3064 -101.4000 173° South 543 625 41,000  Level Minneapolis Center
Wed 04:06:46 PM 43.1547 -101.3733 173° South 549 632 41,000  Level Minneapolis Center
Wed 04:07:48 PM 43.0036 -101.3458 172° South 549 632 41,000  Level Minneapolis Center
Wed 04:08:50 PM 42.8539 -101.3200 173° South 545 627 41,000  Level Minneapolis Center
Wed 04:09:52 PM 42.6742 -101.2897 173° South 546 628 41,000  Level Minneapolis Center
Wed 04:10:55 PM 42.5250 -101.2628 172° South 544 626 41,000  Level Minneapolis Center
Wed 04:12:11 PM 42.3250 -101.2308 173° South 542 624 41,000  Level Denver Center
Wed 04:13:13 PM 42.1814 -101.2053 172° South 544 626 41,000  Level Denver Center
Wed 04:14:16 PM 42.0117 -101.1772 173° South 549 632 41,000  Level Denver Center
Wed 04:15:18 PM 41.8681 -101.1525 173° South 546 628 41,000  Level Denver Center
Wed 04:16:20 PM 41.6992 -101.1258 173° South 546 628 41,000  Level Denver Center
Wed 04:17:22 PM 41.5544 -101.1014 173° South 547 629 41,000  Level Denver Center
Wed 04:18:24 PM 41.3853 -101.0742 173° South 549 632 41,000  Level Denver Center
Wed 04:19:26 PM 41.2425 -101.0514 173° South 543 625 41,000  Level Denver Center
Wed 04:20:28 PM 41.0756 -101.0244 173° South 543 625 41,000  Level Denver Center
Wed 04:21:30 PM 40.9331 -101.0022 173° South 544 626 41,000  Level Denver Center
Wed 04:22:32 PM 40.7692 -100.9897 177° South 538 619 41,000  Level Denver Center
Wed 04:23:46 PM 40.6317 -101.0044 185° South 525 604 41,000  Level Denver Center
Wed 04:24:48 PM 40.4489 -101.0233 184° South 520 598 41,000  Level Denver Center
Wed 04:25:51 PM 40.3117 -101.0381 185° South 517 595 41,000  Level Denver Center
Wed 04:26:53 PM 40.1519 -101.0572 185° South 517 595 41,000  Level Denver Center
Wed 04:27:54 PM 40.0378 -101.0708 185° South 518 596 41,000  Level Denver Center
Wed 04:28:57 PM 39.8561 -101.0897 185° South 513 590 41,000  Level Denver Center
Wed 04:29:59 PM 39.7192 -101.1069 186° South 514 592 41,000  Level Denver Center
Wed 04:31:00 PM 39.5831 -101.1244 186° South 514 592 41,000  Level Denver Center
Wed 04:32:15 PM 39.4228 -101.1417 185° South 516 594 41,000  Level Denver Center
Wed 04:33:17 PM 39.2392 -101.1647 186° South 519 597 41,000  Level Denver Center
Wed 04:34:19 PM 39.0797 -101.1789 184° South 514 592 41,000  Level Denver Center
Wed 04:35:21 PM 38.9361 -101.1850 182° South 520 598 41,000  Level Denver Center
Wed 04:36:23 PM 38.7992 -101.1889 181° South 515 593 41,000  Level Denver Center
Wed 04:37:25 PM 38.6400 -101.1969 182° South 513 590 41,000  Level Denver Center
Wed 04:38:27 PM 38.5033 -101.1958 180° South 514 592 41,000  Level Denver Center
Wed 04:39:29 PM 38.3425 -101.1661 172° South 524 603 41,000  Level Denver Center
Wed 04:40:26 PM 38.2069 -101.1058 161° South 538 619 41,000  Level Kansas City Center
Wed 04:41:30 PM 38.0744 -101.0250 154° Southeast 547 629 41,000  Level Kansas City Center
Wed 04:42:33 PM 37.9469 -100.8711 136° Southeast 566 651 41,000  Level Kansas City Center
Wed 04:43:34 PM 37.8581 -100.7117 125° Southeast 571 657 41,000  Level Kansas City Center
Wed 04:44:35 PM 37.7714 -100.5458 123° Southeast 578 665 41,000  Level Kansas City Center
Wed 04:45:38 PM 37.6958 -100.3386 115° Southeast 580 667 41,000  Level Kansas City Center
Wed 04:46:39 PM 37.6261 -100.1619 116° Southeast 584 672 41,000  Level Kansas City Center
Wed 04:47:43 PM 37.5022 -99.9933 133° Southeast 585 673 41,000  Level Kansas City Center
Wed 04:48:44 PM 37.3944 -99.8542 134° Southeast 581 669 41,000  Level Kansas City Center
Wed 04:49:47 PM 37.2828 -99.7211 137° Southeast 578 665 41,000  Level Kansas City Center
Wed 04:50:48 PM 37.1308 -99.6164 151° Southeast 556 640 41,000  Level Kansas City Center
Wed 04:51:49 PM 36.9900 -99.5625 163° South 552 635 41,000  Level Kansas City Center
Wed 04:52:53 PM 36.8242 -99.5083 165° South 550 633 41,000  Level Kansas City Center
Wed 04:53:54 PM 36.6825 -99.4625 165° South 548 631 41,000  Level Kansas City Center
Wed 04:54:58 PM 36.5186 -99.4086 165° South 545 627 41,000  Level Kansas City Center
Wed 04:55:59 PM 36.3678 -99.3597 165° South 544 626 41,000  Level Kansas City Center
Wed 04:57:00 PM 36.2219 -99.3114 165° South 544 626 41,000  Level Kansas City Center
Wed 04:58:04 PM 36.0739 -99.2625 165° South 547 629 41,000  Level Kansas City Center
Wed 04:59:05 PM 35.9292 -99.2147 165° South 543 625 41,000  Level Kansas City Center
Wed 05:00:06 PM 35.7853 -99.1675 165° South 540 621 41,000  Level Kansas City Center
Wed 05:01:10 PM 35.6031 -99.1111 166° South 544 626 41,000  Level Fort Worth Center
Wed 05:02:10 PM 35.4578 -99.0650 166° South 544 626 41,000  Level Fort Worth Center
Wed 05:03:10 PM 35.3103 -99.0164 165° South 544 626 41,000  Level Fort Worth Center
Wed 05:04:09 PM 35.1650 -98.9703 165° South 544 626 41,000  Level Fort Worth Center
Wed 05:05:10 PM 35.0217 -98.9219 165° South 544 626 41,000  Level Fort Worth Center
Wed 05:06:10 PM 34.8928 -98.8792 165° South 544 626 41,000  Level Fort Worth Center
Wed 05:07:09 PM 34.7494 -98.8339 165° South 538 619 41,000  Level Fort Worth Center
Wed 05:08:10 PM 34.6039 -98.7936 167° South 527 606 41,000  Level Fort Worth Center
Wed 05:09:10 PM 34.4583 -98.7483 166° South 533 613 41,000  Level Fort Worth Center
Wed 05:10:10 PM 34.3169 -98.7033 165° South 533 613 41,000  Level Fort Worth Center
Wed 05:11:10 PM 34.1733 -98.6586 166° South 528 608 41,000  Level Fort Worth Center
Wed 05:12:10 PM 34.0175 -98.6036 164° South 528 608 41,000  Level Fort Worth Center
Wed 05:13:10 PM 33.8844 -98.5319 156° South 528 608 41,000  Level Fort Worth Center
Wed 05:14:10 PM 33.7494 -98.4553 155° Southeast 528 608 41,000  Level Fort Worth Center
Wed 05:15:10 PM 33.6144 -98.3789 155° Southeast 533 613 41,000  Level Fort Worth Center
Wed 05:16:10 PM 33.4919 -98.3078 154° Southeast 545 627 41,000  Level Fort Worth Center
Wed 05:17:10 PM 33.3442 -98.2217 154° Southeast 545 627 41,000  Level Fort Worth Center
Wed 05:18:10 PM 33.2133 -98.1458 154° Southeast 538 619 41,000  Level Fort Worth Center
Wed 05:19:10 PM 33.0781 -98.0678 154° Southeast 538 619 41,000  Level Fort Worth Center
Wed 05:20:10 PM 32.9406 -97.9928 155° Southeast 538 619 41,000  Level Fort Worth Center
Wed 05:21:10 PM 32.8053 -97.9150 154° Southeast 543 625 41,000  Level Fort Worth Center
Wed 05:22:10 PM 32.6761 -97.8428 155° Southeast 538 619 41,000  Level Fort Worth Center
Wed 05:23:10 PM 32.5553 -97.7733 154° Southeast 533 613 41,000  Level Fort Worth Center
Wed 05:24:10 PM 32.4217 -97.6989 155° Southeast 528 608 41,000 -200 Level Fort Worth Center
Wed 05:25:10 PM 32.2925 -97.6247 154° Southeast 528 608 40,600 -1,400 Descending Fort Worth Center
Wed 05:26:10 PM 32.1631 -97.5533 155° Southeast 522 601 38,200 -2,100 Descending Fort Worth Center
Wed 05:27:10 PM 32.0339 -97.4794 154° Southeast 517 595 36,400 -1,100 Descending Fort Worth Center
Wed 05:28:10 PM 31.9044 -97.4133 157° South 517 595 36,000 -350 Descending Fort Worth Center
Wed 05:29:10 PM 31.7561 -97.3939 174° South 522 601 35,700 -2,283 Descending Fort Worth Center
Wed 05:31:35 PM 31.4167 -97.3825 178° South 517 595 28,200 -3,420 Descending Houston Center
Wed 05:32:37 PM 31.2458 -97.3772 178° South 521 600 23,900 -3,726 Descending Houston Center
Wed 05:33:39 PM 31.1108 -97.3725 178° South 498 573 20,500 -3,145 Descending Houston Center
Wed 05:34:41 PM 30.9856 -97.3686 178° South 464 534 17,400 -2,903 Descending Houston Center
Wed 05:35:43 PM 30.8661 -97.3653 179° South 443 510 14,500 -3,000 Descending Houston Center
Wed 05:36:45 PM 30.7450 -97.4031 195° South 390 449 11,200 -2,064 Descending Houston Center
Wed 05:37:48 PM 30.6664 -97.4664 215° Southwest 350 403 10,200 -1,392 Descending Houston Center
Wed 05:38:50 PM 30.5997 -97.5208 215° Southwest 302 348 8,300 -1,839 Descending Houston Center
Wed 05:39:52 PM 30.5256 -97.5619 206° Southwest 294 338 6,400 -1,694 Descending Houston Center
Wed 05:40:54 PM 30.4531 -97.6031 206° Southwest 288 331 4,800 -1,548 Descending Houston Center
Wed 05:41:56 PM 30.3831 -97.6364 202° Southwest 277 319 3,200 -1,113 Descending Houston Center
Wed 05:42:58 PM 30.3139 -97.6614 197° South 265 305 2,500 -774 Descending Houston Center
Wed 05:44:00 PM 30.2578 -97.6589 178° South 191 220 1,600 -629 Descending Houston Center
Wed 05:45:02 PM 30.2144 -97.6589 180° South 173 199 1,200 -387 Descending Houston Center

Login

Don't have an account? Register now (free) for customized features, flight alerts, and more!